sensor_id;sensor_type;location;lat;lon;timestamp;P1;durP1;ratioP1;P2;durP2;ratioP2
48911;SDS011;34722;52.108;5.044;2022-10-16T00:01:17;4.63;;;3.38;;
48911;SDS011;34722;52.108;5.044;2022-10-16T00:03:46;10.48;;;3.20;;
48911;SDS011;34722;52.108;5.044;2022-10-16T00:06:12;6.78;;;3.53;;
48911;SDS011;34722;52.108;5.044;2022-10-16T00:08:39;7.93;;;3.78;;
48911;SDS011;34722;52.108;5.044;2022-10-16T00:11:10;3.63;;;2.55;;
48911;SDS011;34722;52.108;5.044;2022-10-16T00:13:59;8.05;;;2.90;;
48911;SDS011;34722;52.108;5.044;2022-10-16T00:16:27;7.38;;;3.25;;
48911;SDS011;34722;52.108;5.044;2022-10-16T00:18:53;9.75;;;3.33;;
48911;SDS011;34722;52.108;5.044;2022-10-16T00:21:23;11.25;;;3.10;;
48911;SDS011;34722;52.108;5.044;2022-10-16T00:23:55;6.95;;;3.30;;
48911;SDS011;34722;52.108;5.044;2022-10-16T00:26:27;9.27;;;3.42;;
48911;SDS011;34722;52.108;5.044;2022-10-16T00:28:53;6.03;;;3.08;;
48911;SDS011;34722;52.108;5.044;2022-10-16T00:31:20;13.80;;;3.47;;
48911;SDS011;34722;52.108;5.044;2022-10-16T00:33:46;8.55;;;3.95;;
48911;SDS011;34722;52.108;5.044;2022-10-16T00:36:14;11.00;;;3.35;;
48911;SDS011;34722;52.108;5.044;2022-10-16T00:38:42;7.90;;;4.03;;
48911;SDS011;34722;52.108;5.044;2022-10-16T00:41:09;7.72;;;4.05;;
48911;SDS011;34722;52.108;5.044;2022-10-16T00:43:42;14.15;;;3.72;;
48911;SDS011;34722;52.108;5.044;2022-10-16T00:46:35;6.18;;;3.60;;
48911;SDS011;34722;52.108;5.044;2022-10-16T00:49:07;6.00;;;3.72;;
48911;SDS011;34722;52.108;5.044;2022-10-16T00:51:43;9.85;;;3.80;;
48911;SDS011;34722;52.108;5.044;2022-10-16T00:54:15;11.63;;;4.13;;
48911;SDS011;34722;52.108;5.044;2022-10-16T00:56:50;6.72;;;3.30;;
48911;SDS011;34722;52.108;5.044;2022-10-16T00:59:25;10.05;;;4.60;;
48911;SDS011;34722;52.108;5.044;2022-10-16T01:01:53;4.90;;;3.25;;
48911;SDS011;34722;52.108;5.044;2022-10-16T01:04:21;6.18;;;3.25;;
48911;SDS011;34722;52.108;5.044;2022-10-16T01:06:54;5.38;;;3.30;;
48911;SDS011;34722;52.108;5.044;2022-10-16T01:09:36;12.95;;;4.10;;
48911;SDS011;34722;52.108;5.044;2022-10-16T01:12:23;6.45;;;3.80;;
48911;SDS011;34722;52.108;5.044;2022-10-16T01:14:55;6.75;;;3.75;;
48911;SDS011;34722;52.108;5.044;2022-10-16T01:17:30;6.88;;;3.63;;
48911;SDS011;34722;52.108;5.044;2022-10-16T01:28:34;5.07;;;4.10;;
48911;SDS011;34722;52.108;5.044;2022-10-16T01:31:04;8.85;;;4.32;;
48911;SDS011;34722;52.108;5.044;2022-10-16T01:33:34;8.48;;;4.13;;
48911;SDS011;34722;52.108;5.044;2022-10-16T01:36:17;7.88;;;4.13;;
48911;SDS011;34722;52.108;5.044;2022-10-16T01:38:47;7.68;;;3.97;;
48911;SDS011;34722;52.108;5.044;2022-10-16T01:41:18;8.20;;;4.70;;
48911;SDS011;34722;52.108;5.044;2022-10-16T01:44:39;5.00;;;4.20;;
48911;SDS011;34722;52.108;5.044;2022-10-16T01:46:59;9.30;;;4.40;;
48911;SDS011;34722;52.108;5.044;2022-10-16T01:49:27;14.15;;;5.28;;
48911;SDS011;34722;52.108;5.044;2022-10-16T01:51:59;6.80;;;4.30;;
48911;SDS011;34722;52.108;5.044;2022-10-16T01:54:27;9.90;;;4.20;;
48911;SDS011;34722;52.108;5.044;2022-10-16T01:56:56;8.00;;;4.20;;
48911;SDS011;34722;52.108;5.044;2022-10-16T01:59:23;11.00;;;5.35;;
48911;SDS011;34722;52.108;5.044;2022-10-16T02:01:55;7.57;;;4.75;;
48911;SDS011;34722;52.108;5.044;2022-10-16T02:04:27;6.00;;;4.10;;
48911;SDS011;34722;52.108;5.044;2022-10-16T02:06:55;6.80;;;4.75;;
48911;SDS011;34722;52.108;5.044;2022-10-16T02:09:22;6.93;;;4.78;;
48911;SDS011;34722;52.108;5.044;2022-10-16T02:11:47;8.80;;;5.35;;
48911;SDS011;34722;52.108;5.044;2022-10-16T02:14:17;6.63;;;5.00;;
48911;SDS011;34722;52.108;5.044;2022-10-16T02:16:45;9.93;;;5.35;;
48911;SDS011;34722;52.108;5.044;2022-10-16T02:19:15;9.00;;;5.18;;
48911;SDS011;34722;52.108;5.044;2022-10-16T02:21:50;7.40;;;5.75;;
48911;SDS011;34722;52.108;5.044;2022-10-16T02:29:43;9.50;;;5.57;;
48911;SDS011;34722;52.108;5.044;2022-10-16T02:34:44;6.07;;;5.05;;
48911;SDS011;34722;52.108;5.044;2022-10-16T02:37:11;17.08;;;5.43;;
48911;SDS011;34722;52.108;5.044;2022-10-16T02:39:38;6.07;;;4.68;;
48911;SDS011;34722;52.108;5.044;2022-10-16T02:42:09;7.18;;;5.05;;
48911;SDS011;34722;52.108;5.044;2022-10-16T02:44:37;7.05;;;4.85;;
48911;SDS011;34722;52.108;5.044;2022-10-16T02:47:02;9.13;;;5.65;;
48911;SDS011;34722;52.108;5.044;2022-10-16T02:49:28;10.68;;;5.07;;
48911;SDS011;34722;52.108;5.044;2022-10-16T02:51:54;7.85;;;5.03;;
48911;SDS011;34722;52.108;5.044;2022-10-16T02:54:19;9.25;;;5.25;;
48911;SDS011;34722;52.108;5.044;2022-10-16T02:56:45;9.18;;;4.50;;
48911;SDS011;34722;52.108;5.044;2022-10-16T02:59:11;6.00;;;5.25;;
48911;SDS011;34722;52.108;5.044;2022-10-16T03:01:36;7.47;;;4.35;;
48911;SDS011;34722;52.108;5.044;2022-10-16T03:04:02;6.85;;;5.00;;
48911;SDS011;34722;52.108;5.044;2022-10-16T03:06:28;6.10;;;4.85;;
48911;SDS011;34722;52.108;5.044;2022-10-16T03:08:53;7.18;;;4.82;;
48911;SDS011;34722;52.108;5.044;2022-10-16T03:11:19;6.53;;;4.30;;
48911;SDS011;34722;52.108;5.044;2022-10-16T03:13:45;11.80;;;5.47;;
48911;SDS011;34722;52.108;5.044;2022-10-16T03:16:11;6.43;;;4.47;;
48911;SDS011;34722;52.108;5.044;2022-10-16T03:18:36;8.50;;;5.43;;
48911;SDS011;34722;52.108;5.044;2022-10-16T03:21:02;8.20;;;4.78;;
48911;SDS011;34722;52.108;5.044;2022-10-16T03:23:28;5.97;;;4.50;;
48911;SDS011;34722;52.108;5.044;2022-10-16T03:25:54;8.40;;;4.63;;
48911;SDS011;34722;52.108;5.044;2022-10-16T03:28:20;6.75;;;5.03;;
48911;SDS011;34722;52.108;5.044;2022-10-16T03:30:45;11.75;;;4.60;;
48911;SDS011;34722;52.108;5.044;2022-10-16T03:33:11;8.43;;;4.93;;
48911;SDS011;34722;52.108;5.044;2022-10-16T03:35:37;5.82;;;4.72;;
48911;SDS011;34722;52.108;5.044;2022-10-16T03:38:03;10.40;;;4.82;;
48911;SDS011;34722;52.108;5.044;2022-10-16T03:40:28;6.95;;;4.22;;
48911;SDS011;34722;52.108;5.044;2022-10-16T03:42:57;8.63;;;4.65;;
48911;SDS011;34722;52.108;5.044;2022-10-16T03:45:23;8.23;;;4.70;;
48911;SDS011;34722;52.108;5.044;2022-10-16T03:47:49;8.48;;;4.32;;
48911;SDS011;34722;52.108;5.044;2022-10-16T03:50:15;8.18;;;4.63;;
48911;SDS011;34722;52.108;5.044;2022-10-16T03:52:41;8.32;;;4.32;;
48911;SDS011;34722;52.108;5.044;2022-10-16T03:55:06;6.07;;;4.22;;
48911;SDS011;34722;52.108;5.044;2022-10-16T03:57:32;5.32;;;4.03;;
48911;SDS011;34722;52.108;5.044;2022-10-16T03:59:58;7.00;;;4.57;;
48911;SDS011;34722;52.108;5.044;2022-10-16T04:02:24;5.30;;;3.85;;
48911;SDS011;34722;52.108;5.044;2022-10-16T04:04:49;8.25;;;3.88;;
48911;SDS011;34722;52.108;5.044;2022-10-16T04:07:15;6.47;;;4.55;;
48911;SDS011;34722;52.108;5.044;2022-10-16T04:09:41;6.18;;;3.78;;
48911;SDS011;34722;52.108;5.044;2022-10-16T04:12:07;9.40;;;3.78;;
48911;SDS011;34722;52.108;5.044;2022-10-16T04:14:32;4.05;;;3.58;;
48911;SDS011;34722;52.108;5.044;2022-10-16T04:16:58;5.32;;;3.47;;
48911;SDS011;34722;52.108;5.044;2022-10-16T04:19:24;4.20;;;3.50;;
48911;SDS011;34722;52.108;5.044;2022-10-16T04:21:50;9.90;;;3.33;;
48911;SDS011;34722;52.108;5.044;2022-10-16T04:24:15;8.30;;;3.63;;
48911;SDS011;34722;52.108;5.044;2022-10-16T04:26:41;4.50;;;3.53;;
48911;SDS011;34722;52.108;5.044;2022-10-16T04:29:07;6.53;;;3.65;;
48911;SDS011;34722;52.108;5.044;2022-10-16T04:31:32;6.32;;;3.35;;
48911;SDS011;34722;52.108;5.044;2022-10-16T04:33:59;9.18;;;3.97;;
48911;SDS011;34722;52.108;5.044;2022-10-16T04:36:24;4.47;;;3.50;;
48911;SDS011;34722;52.108;5.044;2022-10-16T04:38:50;5.70;;;3.67;;
48911;SDS011;34722;52.108;5.044;2022-10-16T04:41:15;6.97;;;4.00;;
48911;SDS011;34722;52.108;5.044;2022-10-16T04:43:41;5.90;;;3.83;;
48911;SDS011;34722;52.108;5.044;2022-10-16T04:46:07;6.00;;;3.80;;
48911;SDS011;34722;52.108;5.044;2022-10-16T04:48:32;6.55;;;4.00;;
48911;SDS011;34722;52.108;5.044;2022-10-16T04:50:58;7.90;;;3.92;;
48911;SDS011;34722;52.108;5.044;2022-10-16T04:53:24;6.57;;;4.45;;
48911;SDS011;34722;52.108;5.044;2022-10-16T04:55:50;4.75;;;3.85;;
48911;SDS011;34722;52.108;5.044;2022-10-16T04:58:16;4.97;;;4.05;;
48911;SDS011;34722;52.108;5.044;2022-10-16T05:00:42;6.70;;;4.20;;
48911;SDS011;34722;52.108;5.044;2022-10-16T05:03:08;7.40;;;3.80;;
48911;SDS011;34722;52.108;5.044;2022-10-16T05:05:35;9.40;;;4.57;;
48911;SDS011;34722;52.108;5.044;2022-10-16T05:08:01;5.85;;;4.22;;
48911;SDS011;34722;52.108;5.044;2022-10-16T05:10:27;6.38;;;3.97;;
48911;SDS011;34722;52.108;5.044;2022-10-16T05:12:53;7.05;;;4.20;;
48911;SDS011;34722;52.108;5.044;2022-10-16T05:15:19;10.13;;;4.30;;
48911;SDS011;34722;52.108;5.044;2022-10-16T05:17:44;4.95;;;4.13;;
48911;SDS011;34722;52.108;5.044;2022-10-16T05:20:11;4.25;;;3.85;;
48911;SDS011;34722;52.108;5.044;2022-10-16T05:22:37;7.28;;;4.05;;
48911;SDS011;34722;52.108;5.044;2022-10-16T05:25:03;7.03;;;5.07;;
48911;SDS011;34722;52.108;5.044;2022-10-16T05:27:29;9.35;;;4.82;;
48911;SDS011;34722;52.108;5.044;2022-10-16T05:29:54;7.80;;;3.80;;
48911;SDS011;34722;52.108;5.044;2022-10-16T05:32:20;6.85;;;4.63;;
48911;SDS011;34722;52.108;5.044;2022-10-16T05:34:46;6.30;;;3.85;;
48911;SDS011;34722;52.108;5.044;2022-10-16T05:37:12;5.90;;;3.75;;
48911;SDS011;34722;52.108;5.044;2022-10-16T05:39:38;6.40;;;4.43;;
48911;SDS011;34722;52.108;5.044;2022-10-16T05:42:04;6.07;;;4.53;;
48911;SDS011;34722;52.108;5.044;2022-10-16T05:44:30;8.68;;;4.72;;
48911;SDS011;34722;52.108;5.044;2022-10-16T05:46:56;8.68;;;3.97;;
48911;SDS011;34722;52.108;5.044;2022-10-16T05:49:21;5.75;;;4.10;;
48911;SDS011;34722;52.108;5.044;2022-10-16T05:51:47;10.23;;;4.90;;
48911;SDS011;34722;52.108;5.044;2022-10-16T05:54:13;4.60;;;4.00;;
48911;SDS011;34722;52.108;5.044;2022-10-16T05:56:42;5.97;;;4.75;;
48911;SDS011;34722;52.108;5.044;2022-10-16T05:59:08;8.70;;;4.60;;
48911;SDS011;34722;52.108;5.044;2022-10-16T06:01:34;6.70;;;4.65;;
48911;SDS011;34722;52.108;5.044;2022-10-16T06:04:02;8.60;;;5.25;;
48911;SDS011;34722;52.108;5.044;2022-10-16T06:06:28;8.35;;;4.82;;
48911;SDS011;34722;52.108;5.044;2022-10-16T06:08:55;9.63;;;5.53;;
48911;SDS011;34722;52.108;5.044;2022-10-16T06:11:22;9.10;;;6.82;;
48911;SDS011;34722;52.108;5.044;2022-10-16T06:13:51;9.98;;;5.43;;
48911;SDS011;34722;52.108;5.044;2022-10-16T06:16:21;6.15;;;5.07;;
48911;SDS011;34722;52.108;5.044;2022-10-16T06:18:50;8.65;;;5.47;;
48911;SDS011;34722;52.108;5.044;2022-10-16T06:21:19;6.90;;;5.22;;
48911;SDS011;34722;52.108;5.044;2022-10-16T06:23:46;13.18;;;7.10;;
48911;SDS011;34722;52.108;5.044;2022-10-16T06:26:16;9.13;;;5.40;;
48911;SDS011;34722;52.108;5.044;2022-10-16T06:28:43;8.52;;;5.40;;
48911;SDS011;34722;52.108;5.044;2022-10-16T06:31:15;15.68;;;6.10;;
48911;SDS011;34722;52.108;5.044;2022-10-16T06:33:41;9.43;;;5.25;;
48911;SDS011;34722;52.108;5.044;2022-10-16T06:36:08;8.90;;;5.75;;
48911;SDS011;34722;52.108;5.044;2022-10-16T06:38:36;8.77;;;5.15;;
48911;SDS011;34722;52.108;5.044;2022-10-16T06:41:02;6.10;;;4.78;;
48911;SDS011;34722;52.108;5.044;2022-10-16T06:43:32;10.52;;;5.50;;
48911;SDS011;34722;52.108;5.044;2022-10-16T06:46:00;6.28;;;4.53;;
48911;SDS011;34722;52.108;5.044;2022-10-16T06:48:27;8.77;;;5.10;;
48911;SDS011;34722;52.108;5.044;2022-10-16T06:50:58;7.95;;;4.45;;
48911;SDS011;34722;52.108;5.044;2022-10-16T06:53:29;8.05;;;4.53;;
48911;SDS011;34722;52.108;5.044;2022-10-16T06:55:57;8.70;;;4.30;;
48911;SDS011;34722;52.108;5.044;2022-10-16T06:58:23;9.15;;;4.15;;
48911;SDS011;34722;52.108;5.044;2022-10-16T07:00:55;11.38;;;4.22;;
48911;SDS011;34722;52.108;5.044;2022-10-16T07:03:22;4.82;;;3.30;;
48911;SDS011;34722;52.108;5.044;2022-10-16T07:05:47;8.23;;;3.17;;
48911;SDS011;34722;52.108;5.044;2022-10-16T07:08:13;3.00;;;2.65;;
48911;SDS011;34722;52.108;5.044;2022-10-16T07:10:39;6.18;;;3.15;;
48911;SDS011;34722;52.108;5.044;2022-10-16T07:13:04;8.25;;;2.95;;
48911;SDS011;34722;52.108;5.044;2022-10-16T07:15:32;8.80;;;2.78;;
48911;SDS011;34722;52.108;5.044;2022-10-16T07:17:58;8.48;;;2.78;;
48911;SDS011;34722;52.108;5.044;2022-10-16T07:20:24;9.63;;;3.95;;
48911;SDS011;34722;52.108;5.044;2022-10-16T07:22:50;10.82;;;3.72;;
48911;SDS011;34722;52.108;5.044;2022-10-16T07:25:16;10.68;;;2.47;;
48911;SDS011;34722;52.108;5.044;2022-10-16T07:27:42;4.22;;;2.65;;
48911;SDS011;34722;52.108;5.044;2022-10-16T07:30:11;5.50;;;2.00;;
48911;SDS011;34722;52.108;5.044;2022-10-16T07:32:40;8.13;;;3.38;;
48911;SDS011;34722;52.108;5.044;2022-10-16T07:35:06;8.27;;;1.85;;
48911;SDS011;34722;52.108;5.044;2022-10-16T07:37:32;8.15;;;2.63;;
48911;SDS011;34722;52.108;5.044;2022-10-16T07:39:58;7.63;;;2.33;;
48911;SDS011;34722;52.108;5.044;2022-10-16T07:42:25;2.63;;;1.80;;
48911;SDS011;34722;52.108;5.044;2022-10-16T12:07:06;9.05;;;2.53;;
48911;SDS011;34722;52.108;5.044;2022-10-16T12:09:37;11.77;;;2.30;;
48911;SDS011;34722;52.108;5.044;2022-10-16T12:12:04;9.07;;;2.65;;
48911;SDS011;34722;52.108;5.044;2022-10-16T12:14:59;9.18;;;1.90;;
48911;SDS011;34722;52.108;5.044;2022-10-16T12:17:27;9.73;;;2.70;;
48911;SDS011;34722;52.108;5.044;2022-10-16T12:22:40;9.48;;;1.88;;
48911;SDS011;34722;52.108;5.044;2022-10-16T12:25:21;14.23;;;2.47;;
48911;SDS011;34722;52.108;5.044;2022-10-16T12:30:58;10.55;;;2.35;;
48911;SDS011;34722;52.108;5.044;2022-10-16T12:33:34;8.75;;;2.17;;
48911;SDS011;34722;52.108;5.044;2022-10-16T12:36:03;13.43;;;2.67;;
48911;SDS011;34722;52.108;5.044;2022-10-16T12:38:45;10.10;;;2.63;;
48911;SDS011;34722;52.108;5.044;2022-10-16T12:41:33;10.95;;;2.70;;
48911;SDS011;34722;52.108;5.044;2022-10-16T12:44:38;11.45;;;2.95;;
48911;SDS011;34722;52.108;5.044;2022-10-16T12:47:02;7.82;;;2.15;;
48911;SDS011;34722;52.108;5.044;2022-10-16T12:49:35;18.08;;;3.42;;
48911;SDS011;34722;52.108;5.044;2022-10-16T12:52:22;10.88;;;2.10;;
48911;SDS011;34722;52.108;5.044;2022-10-16T12:55:15;10.13;;;2.17;;
48911;SDS011;34722;52.108;5.044;2022-10-16T13:03:32;8.55;;;2.28;;
48911;SDS011;34722;52.108;5.044;2022-10-16T13:08:41;15.65;;;2.75;;
48911;SDS011;34722;52.108;5.044;2022-10-16T13:16:50;10.57;;;2.00;;
48911;SDS011;34722;52.108;5.044;2022-10-16T13:22:04;21.73;;;3.35;;
48911;SDS011;34722;52.108;5.044;2022-10-16T13:24:57;13.85;;;2.67;;
48911;SDS011;34722;52.108;5.044;2022-10-16T13:30:25;7.70;;;1.50;;
48911;SDS011;34722;52.108;5.044;2022-10-16T13:33:03;8.32;;;2.17;;
48911;SDS011;34722;52.108;5.044;2022-10-16T13:35:46;13.80;;;1.95;;
48911;SDS011;34722;52.108;5.044;2022-10-16T13:43:22;12.25;;;3.17;;
48911;SDS011;34722;52.108;5.044;2022-10-16T13:45:59;13.52;;;2.40;;
48911;SDS011;34722;52.108;5.044;2022-10-16T13:48:30;8.00;;;1.75;;
48911;SDS011;34722;52.108;5.044;2022-10-16T13:51:00;9.38;;;2.47;;
48911;SDS011;34722;52.108;5.044;2022-10-16T13:53:29;12.98;;;3.60;;
48911;SDS011;34722;52.108;5.044;2022-10-16T13:55:56;13.77;;;4.15;;
48911;SDS011;34722;52.108;5.044;2022-10-16T13:58:31;11.27;;;2.67;;
48911;SDS011;34722;52.108;5.044;2022-10-16T14:00:58;13.80;;;3.55;;
48911;SDS011;34722;52.108;5.044;2022-10-16T14:03:30;9.07;;;2.83;;
48911;SDS011;34722;52.108;5.044;2022-10-16T14:05:59;15.13;;;2.63;;
48911;SDS011;34722;52.108;5.044;2022-10-16T14:08:27;10.77;;;2.40;;
48911;SDS011;34722;52.108;5.044;2022-10-16T14:10:55;10.07;;;2.13;;
48911;SDS011;34722;52.108;5.044;2022-10-16T14:13:31;13.63;;;3.50;;
48911;SDS011;34722;52.108;5.044;2022-10-16T14:16:16;12.10;;;2.42;;
48911;SDS011;34722;52.108;5.044;2022-10-16T14:19:34;19.02;;;4.22;;
48911;SDS011;34722;52.108;5.044;2022-10-16T14:21:41;15.55;;;5.15;;
48911;SDS011;34722;52.108;5.044;2022-10-16T14:24:14;14.35;;;5.07;;
48911;SDS011;34722;52.108;5.044;2022-10-16T14:26:50;19.75;;;5.10;;
48911;SDS011;34722;52.108;5.044;2022-10-16T14:29:19;14.38;;;3.70;;
48911;SDS011;34722;52.108;5.044;2022-10-16T14:31:56;12.73;;;3.70;;
48911;SDS011;34722;52.108;5.044;2022-10-16T14:34:28;12.57;;;3.10;;
48911;SDS011;34722;52.108;5.044;2022-10-16T14:37:06;13.05;;;5.45;;
48911;SDS011;34722;52.108;5.044;2022-10-16T14:39:42;24.52;;;7.97;;
48911;SDS011;34722;52.108;5.044;2022-10-16T14:42:16;15.68;;;6.15;;
48911;SDS011;34722;52.108;5.044;2022-10-16T14:44:51;14.25;;;4.80;;
48911;SDS011;34722;52.108;5.044;2022-10-16T14:47:20;9.90;;;2.92;;
48911;SDS011;34722;52.108;5.044;2022-10-16T14:49:51;17.67;;;4.05;;
48911;SDS011;34722;52.108;5.044;2022-10-16T14:52:20;15.13;;;5.53;;
48911;SDS011;34722;52.108;5.044;2022-10-16T14:54:49;13.05;;;4.15;;
48911;SDS011;34722;52.108;5.044;2022-10-16T14:57:19;12.63;;;4.65;;
48911;SDS011;34722;52.108;5.044;2022-10-16T14:59:47;15.68;;;2.72;;
48911;SDS011;34722;52.108;5.044;2022-10-16T15:04:44;18.73;;;6.20;;
48911;SDS011;34722;52.108;5.044;2022-10-16T15:07:16;12.75;;;3.28;;
48911;SDS011;34722;52.108;5.044;2022-10-16T15:09:42;11.70;;;2.70;;
48911;SDS011;34722;52.108;5.044;2022-10-16T15:12:08;11.35;;;2.88;;
48911;SDS011;34722;52.108;5.044;2022-10-16T15:14:34;13.27;;;3.42;;
48911;SDS011;34722;52.108;5.044;2022-10-16T15:17:02;14.00;;;3.17;;
48911;SDS011;34722;52.108;5.044;2022-10-16T15:19:28;20.13;;;4.20;;
48911;SDS011;34722;52.108;5.044;2022-10-16T15:21:54;13.13;;;3.17;;
48911;SDS011;34722;52.108;5.044;2022-10-16T15:24:21;16.98;;;3.20;;
48911;SDS011;34722;52.108;5.044;2022-10-16T15:26:53;20.08;;;3.28;;
48911;SDS011;34722;52.108;5.044;2022-10-16T15:29:19;12.77;;;2.90;;
48911;SDS011;34722;52.108;5.044;2022-10-16T15:31:48;14.77;;;3.13;;
48911;SDS011;34722;52.108;5.044;2022-10-16T15:34:13;12.40;;;3.15;;
48911;SDS011;34722;52.108;5.044;2022-10-16T15:36:40;19.13;;;3.38;;
48911;SDS011;34722;52.108;5.044;2022-10-16T15:39:10;12.20;;;2.67;;
48911;SDS011;34722;52.108;5.044;2022-10-16T15:41:38;13.68;;;2.45;;
48911;SDS011;34722;52.108;5.044;2022-10-16T15:44:07;11.10;;;2.53;;
48911;SDS011;34722;52.108;5.044;2022-10-16T15:46:33;13.80;;;3.60;;
48911;SDS011;34722;52.108;5.044;2022-10-16T15:49:12;9.07;;;2.15;;
48911;SDS011;34722;52.108;5.044;2022-10-16T15:51:41;9.45;;;2.97;;
48911;SDS011;34722;52.108;5.044;2022-10-16T15:54:11;13.00;;;3.05;;
48911;SDS011;34722;52.108;5.044;2022-10-16T15:56:36;13.13;;;2.88;;
48911;SDS011;34722;52.108;5.044;2022-10-16T15:59:13;11.40;;;2.85;;
48911;SDS011;34722;52.108;5.044;2022-10-16T16:01:45;11.43;;;2.72;;
48911;SDS011;34722;52.108;5.044;2022-10-16T16:04:11;15.77;;;2.92;;
48911;SDS011;34722;52.108;5.044;2022-10-16T16:06:44;23.42;;;4.70;;
48911;SDS011;34722;52.108;5.044;2022-10-16T16:09:11;19.42;;;3.17;;
48911;SDS011;34722;52.108;5.044;2022-10-16T16:11:40;15.32;;;2.95;;
48911;SDS011;34722;52.108;5.044;2022-10-16T16:14:06;16.80;;;4.10;;
48911;SDS011;34722;52.108;5.044;2022-10-16T16:16:40;22.92;;;4.88;;
48911;SDS011;34722;52.108;5.044;2022-10-16T16:19:06;10.88;;;3.75;;
48911;SDS011;34722;52.108;5.044;2022-10-16T16:21:32;12.48;;;3.70;;
48911;SDS011;34722;52.108;5.044;2022-10-16T16:23:58;17.40;;;5.43;;
48911;SDS011;34722;52.108;5.044;2022-10-16T16:26:25;21.90;;;10.27;;
48911;SDS011;34722;52.108;5.044;2022-10-16T16:29:00;33.42;;;15.20;;
48911;SDS011;34722;52.108;5.044;2022-10-16T16:31:27;34.00;;;16.25;;
48911;SDS011;34722;52.108;5.044;2022-10-16T16:33:54;38.28;;;16.70;;
48911;SDS011;34722;52.108;5.044;2022-10-16T16:36:21;31.33;;;12.27;;
48911;SDS011;34722;52.108;5.044;2022-10-16T16:38:48;33.35;;;12.98;;
48911;SDS011;34722;52.108;5.044;2022-10-16T16:41:15;30.65;;;11.48;;
48911;SDS011;34722;52.108;5.044;2022-10-16T16:43:43;30.30;;;11.57;;
48911;SDS011;34722;52.108;5.044;2022-10-16T16:46:09;24.80;;;10.18;;
48911;SDS011;34722;52.108;5.044;2022-10-16T16:48:35;22.60;;;9.20;;
48911;SDS011;34722;52.108;5.044;2022-10-16T16:51:04;21.02;;;10.27;;
48911;SDS011;34722;52.108;5.044;2022-10-16T16:53:35;30.27;;;10.43;;
48911;SDS011;34722;52.108;5.044;2022-10-16T16:56:04;23.75;;;10.05;;
48911;SDS011;34722;52.108;5.044;2022-10-16T16:58:31;23.38;;;9.23;;
48911;SDS011;34722;52.108;5.044;2022-10-16T17:00:57;24.67;;;9.73;;
48911;SDS011;34722;52.108;5.044;2022-10-16T17:03:26;23.95;;;8.55;;
48911;SDS011;34722;52.108;5.044;2022-10-16T17:05:56;29.25;;;9.50;;
48911;SDS011;34722;52.108;5.044;2022-10-16T17:08:23;19.90;;;7.82;;
48911;SDS011;34722;52.108;5.044;2022-10-16T17:10:52;21.55;;;7.13;;
48911;SDS011;34722;52.108;5.044;2022-10-16T17:13:22;23.00;;;8.13;;
48911;SDS011;34722;52.108;5.044;2022-10-16T17:15:53;14.93;;;6.65;;
48911;SDS011;34722;52.108;5.044;2022-10-16T17:18:19;17.70;;;6.30;;
48911;SDS011;34722;52.108;5.044;2022-10-16T17:20:46;22.98;;;6.32;;
48911;SDS011;34722;52.108;5.044;2022-10-16T17:23:13;17.17;;;6.65;;
48911;SDS011;34722;52.108;5.044;2022-10-16T17:25:40;19.20;;;5.97;;
48911;SDS011;34722;52.108;5.044;2022-10-16T17:28:07;19.77;;;5.88;;
48911;SDS011;34722;52.108;5.044;2022-10-16T17:30:36;16.77;;;6.38;;
48911;SDS011;34722;52.108;5.044;2022-10-16T17:33:03;17.30;;;6.18;;
48911;SDS011;34722;52.108;5.044;2022-10-16T17:35:35;21.08;;;7.43;;
48911;SDS011;34722;52.108;5.044;2022-10-16T17:38:02;21.13;;;7.88;;
48911;SDS011;34722;52.108;5.044;2022-10-16T17:40:27;14.52;;;6.50;;
48911;SDS011;34722;52.108;5.044;2022-10-16T17:42:53;21.95;;;6.60;;
48911;SDS011;34722;52.108;5.044;2022-10-16T17:45:19;20.95;;;7.47;;
48911;SDS011;34722;52.108;5.044;2022-10-16T17:47:45;16.60;;;7.13;;
48911;SDS011;34722;52.108;5.044;2022-10-16T17:50:11;17.27;;;7.30;;
48911;SDS011;34722;52.108;5.044;2022-10-16T17:52:40;18.40;;;7.55;;
48911;SDS011;34722;52.108;5.044;2022-10-16T17:55:06;25.55;;;8.20;;
48911;SDS011;34722;52.108;5.044;2022-10-16T17:57:32;20.02;;;7.60;;
48911;SDS011;34722;52.108;5.044;2022-10-16T18:00:06;18.80;;;7.78;;
48911;SDS011;34722;52.108;5.044;2022-10-16T18:02:35;24.27;;;7.78;;
48911;SDS011;34722;52.108;5.044;2022-10-16T18:05:01;21.13;;;7.47;;
48911;SDS011;34722;52.108;5.044;2022-10-16T18:07:30;25.15;;;7.72;;
48911;SDS011;34722;52.108;5.044;2022-10-16T18:09:55;20.15;;;7.72;;
48911;SDS011;34722;52.108;5.044;2022-10-16T18:12:21;18.80;;;6.88;;
48911;SDS011;34722;52.108;5.044;2022-10-16T18:14:47;16.42;;;6.97;;
48911;SDS011;34722;52.108;5.044;2022-10-16T18:17:13;22.85;;;6.47;;
48911;SDS011;34722;52.108;5.044;2022-10-16T18:19:43;28.65;;;7.28;;
48911;SDS011;34722;52.108;5.044;2022-10-16T18:22:09;23.52;;;7.88;;
48911;SDS011;34722;52.108;5.044;2022-10-16T18:24:34;18.77;;;6.35;;
48911;SDS011;34722;52.108;5.044;2022-10-16T18:27:01;19.67;;;5.88;;
48911;SDS011;34722;52.108;5.044;2022-10-16T18:29:26;14.88;;;5.28;;
48911;SDS011;34722;52.108;5.044;2022-10-16T18:31:52;15.27;;;6.25;;
48911;SDS011;34722;52.108;5.044;2022-10-16T18:34:18;22.33;;;7.05;;
48911;SDS011;34722;52.108;5.044;2022-10-16T18:36:44;14.95;;;5.90;;
48911;SDS011;34722;52.108;5.044;2022-10-16T18:39:11;16.85;;;5.43;;
48911;SDS011;34722;52.108;5.044;2022-10-16T18:41:38;18.13;;;5.57;;
48911;SDS011;34722;52.108;5.044;2022-10-16T18:44:05;20.73;;;5.93;;
48911;SDS011;34722;52.108;5.044;2022-10-16T18:46:33;21.58;;;5.95;;
48911;SDS011;34722;52.108;5.044;2022-10-16T18:48:59;20.73;;;5.50;;
48911;SDS011;34722;52.108;5.044;2022-10-16T18:53:53;18.40;;;5.43;;
48911;SDS011;34722;52.108;5.044;2022-10-16T18:56:21;18.75;;;6.18;;
48911;SDS011;34722;52.108;5.044;2022-10-16T18:58:48;25.27;;;5.97;;
48911;SDS011;34722;52.108;5.044;2022-10-16T19:01:19;15.63;;;4.63;;
48911;SDS011;34722;52.108;5.044;2022-10-16T19:03:47;16.45;;;5.32;;
48911;SDS011;34722;52.108;5.044;2022-10-16T19:06:17;21.52;;;5.70;;
48911;SDS011;34722;52.108;5.044;2022-10-16T19:08:42;21.02;;;6.07;;
48911;SDS011;34722;52.108;5.044;2022-10-16T19:11:10;18.25;;;6.35;;
48911;SDS011;34722;52.108;5.044;2022-10-16T19:13:38;14.02;;;5.55;;
48911;SDS011;34722;52.108;5.044;2022-10-16T19:16:04;18.65;;;6.75;;
48911;SDS011;34722;52.108;5.044;2022-10-16T19:18:34;17.98;;;7.20;;
48911;SDS011;34722;52.108;5.044;2022-10-16T19:21:06;18.38;;;6.78;;
48911;SDS011;34722;52.108;5.044;2022-10-16T19:23:33;21.70;;;6.75;;
48911;SDS011;34722;52.108;5.044;2022-10-16T19:26:10;18.23;;;6.15;;
48911;SDS011;34722;52.108;5.044;2022-10-16T19:28:37;21.00;;;7.15;;
48911;SDS011;34722;52.108;5.044;2022-10-16T19:31:04;20.90;;;7.18;;
48911;SDS011;34722;52.108;5.044;2022-10-16T19:33:32;41.88;;;8.45;;
48911;SDS011;34722;52.108;5.044;2022-10-16T19:36:05;21.88;;;5.95;;
48911;SDS011;34722;52.108;5.044;2022-10-16T19:38:38;19.73;;;6.05;;
48911;SDS011;34722;52.108;5.044;2022-10-16T19:41:05;20.77;;;7.22;;
48911;SDS011;34722;52.108;5.044;2022-10-16T19:43:33;25.40;;;7.90;;
48911;SDS011;34722;52.108;5.044;2022-10-16T19:46:09;16.17;;;7.13;;
48911;SDS011;34722;52.108;5.044;2022-10-16T19:49:02;20.08;;;6.75;;
48911;SDS011;34722;52.108;5.044;2022-10-16T19:51:29;27.48;;;8.25;;
48911;SDS011;34722;52.108;5.044;2022-10-16T19:53:56;23.25;;;7.93;;
48911;SDS011;34722;52.108;5.044;2022-10-16T19:56:25;25.23;;;9.20;;
48911;SDS011;34722;52.108;5.044;2022-10-16T19:58:52;26.35;;;9.82;;
48911;SDS011;34722;52.108;5.044;2022-10-16T20:01:20;23.60;;;8.40;;
48911;SDS011;34722;52.108;5.044;2022-10-16T20:03:47;27.60;;;9.80;;
48911;SDS011;34722;52.108;5.044;2022-10-16T20:06:13;21.80;;;8.43;;